Time;durP1;ratioP1;P1;durP2;ratioP2;P2;SDS_P1;SDS_P2;PMS_P1;PMS_P2;Temp;Humidity;BMP_temperature;BMP_pressure;BME280_temperature;BME280_humidity;BME280_pressure;Samples;Min_cycle;Max_cycle;Signal;HPM_P1;HPM_P2
2022/08/12 00:51:05;;;;;;;3.33;2.47;;;23.00;77.10;;;;;;4964522;28;21074;-79
2022/08/12 00:54:17;;;;;;;5.13;2.40;;;23.00;77.00;;;;;;4963069;28;20129;-78
2022/08/12 01:00:47;;;;;;;3.40;2.40;;;23.00;77.70;;;;;;4972113;28;20219;-79
2022/08/12 01:16:08;;;;;;;5.82;2.80;;;22.80;77.30;;;;;;4962501;28;20073;-80
2022/08/12 01:25:31;;;;;;;3.42;2.45;;;22.70;77.00;;;;;;4953235;28;20217;-79
2022/08/12 01:28:20;;;;;;;8.48;2.60;;;22.70;77.20;;;;;;4929189;28;20057;-79
2022/08/12 01:34:13;;;;;;;5.95;2.75;;;22.70;77.10;;;;;;4939863;28;20087;-79
2022/08/12 01:37:42;;;;;;;;;;;;;;;;;;;;;
2022/08/12 01:40:44;;;;;;;4.35;2.45;;;22.60;77.00;;;;;;5008570;28;42540;-79
2022/08/12 01:43:42;;;;;;;5.72;2.97;;;22.70;77.20;;;;;;4963078;28;20052;-79
2022/08/12 01:46:43;;;;;;;2.83;2.20;;;22.60;77.00;;;;;;4933822;28;21040;-79
2022/08/12 01:53:07;;;;;;;;;;;22.60;76.90;;;;;;4890088;28;20116;-79
2022/08/12 01:56:03;;;;;;;4.25;2.50;;;22.50;76.90;;;;;;4869879;28;20022;-80
2022/08/12 01:59:59;;;;;;;;;;;;;;;;;;;;;
2022/08/12 02:03:11;;;;;;;5.47;3.10;;;22.40;76.90;;;;;;4927342;28;44483;-79
2022/08/12 02:13:09;;;;;;;5.45;2.72;;;22.30;76.90;;;;;;4962706;28;20934;-79
2022/08/12 02:16:03;;;;;;;8.30;3.08;;;22.30;76.90;;;;;;4953682;28;20058;-80
2022/08/12 02:19:33;;;;;;;4.53;2.65;;;22.30;76.90;;;;;;4960960;28;20051;-79
2022/08/12 02:22:43;;;;;;;4.53;2.90;;;22.30;76.90;;;;;;4899716;28;20163;-79
2022/08/12 02:30:51;;;;;;;6.18;2.63;;;22.50;77.30;;;;;;5097912;27;20059;-79
2022/08/12 02:40:24;;;;;;;4.63;3.05;;;22.40;77.40;;;;;;5034400;27;20466;-79
2022/08/12 02:43:23;;;;;;;3.85;2.72;;;22.10;77.30;;;;;;5088337;27;20050;-79
2022/08/12 02:50:06;;;;;;;4.45;2.80;;;21.90;77.20;;;;;;5097100;27;20047;-79
2022/08/12 02:53:16;;;;;;;4.30;3.00;;;22.10;77.30;;;;;;5069861;27;20041;-79
2022/08/12 02:56:12;;;;;;;5.15;2.97;;;22.00;77.30;;;;;;5099651;27;20063;-79
2022/08/12 03:05:49;;;;;;;7.75;2.92;;;22.00;77.40;;;;;;5088305;27;20185;-79
2022/08/12 03:08:51;;;;;;;8.35;3.40;;;22.00;77.40;;;;;;5082768;27;20055;-79
2022/08/12 03:11:58;;;;;;;7.00;3.55;;;22.00;77.50;;;;;;5044334;28;20053;-79
2022/08/12 03:31:01;;;;;;;5.43;2.78;;;21.70;77.80;;;;;;5044252;28;20526;-79
2022/08/12 03:37:12;;;;;;;4.95;2.85;;;21.70;77.90;;;;;;5039844;28;20119;-79
2022/08/12 04:14:10;;;;;;;7.18;3.83;;;21.40;78.80;;;;;;5084586;27;20063;-79
2022/08/12 04:17:21;;;;;;;6.45;3.00;;;21.40;78.70;;;;;;5061954;28;20187;-79
2022/08/12 04:24:01;;;;;;;5.53;3.05;;;21.40;78.90;;;;;;5023389;28;20045;-79
2022/08/12 04:33:31;;;;;;;7.43;4.50;;;21.30;79.00;;;;;;5029365;28;20129;-79
2022/08/12 04:36:34;;;;;;;5.03;2.85;;;21.30;79.10;;;;;;4972392;28;20050;-79
2022/08/12 04:39:55;;;;;;;5.85;2.90;;;21.20;79.10;;;;;;4944028;28;20077;-79
2022/08/12 04:43:12;;;;;;;4.93;2.80;;;21.20;79.20;;;;;;4959755;28;20113;-79
2022/08/12 04:56:14;;;;;;;4.80;3.08;;;21.10;79.40;;;;;;4981688;28;20495;-79
2022/08/12 04:59:17;;;;;;;4.40;2.90;;;21.10;79.50;;;;;;4998443;28;20050;-81
2022/08/12 05:01:51;;;;;;;4.93;2.67;;;21.10;79.50;;;;;;4990542;28;20053;-80
2022/08/12 05:04:28;;;;;;;7.07;3.10;;;21.10;79.50;;;;;;5007367;28;20519;-78
2022/08/12 05:07:38;;;;;;;5.18;3.60;;;21.10;79.60;;;;;;5062728;28;20092;-80
2022/08/12 05:10:22;;;;;;;3.65;2.72;;;21.10;79.70;;;;;;5065911;28;20135;-79
2022/08/12 05:12:57;;;;;;;6.32;3.03;;;21.00;79.70;;;;;;5082091;27;20038;-79
2022/08/12 05:15:35;;;;;;;8.07;3.80;;;21.00;79.80;;;;;;5074844;28;20054;-79
2022/08/12 05:18:25;;;;;;;3.75;3.33;;;20.90;79.70;;;;;;5070052;27;20044;-79
2022/08/12 05:21:11;;;;;;;;;;;;;;;;;;;;;
2022/08/12 05:24:00;;;;;;;3.65;2.83;;;20.90;80.00;;;;;;5084014;27;43549;-78
2022/08/12 05:29:51;;;;;;;5.60;3.28;;;21.00;80.00;;;;;;5076876;27;20045;-79
2022/08/12 05:35:24;;;;;;;4.25;3.00;;;21.00;80.10;;;;;;5022918;28;20057;-77
2022/08/12 05:47:46;;;;;;;4.57;3.20;;;20.90;80.30;;;;;;5026046;28;20042;-81
2022/08/12 05:53:39;;;;;;;5.45;3.03;;;21.30;80.80;;;;;;5026365;28;20084;-82
2022/08/12 05:56:37;;;;;;;6.57;2.97;;;21.00;80.60;;;;;;5021663;28;20617;-82
2022/08/12 05:59:44;;;;;;;;;;;;;;;;;;;;;
2022/08/12 06:02:50;;;;;;;11.13;3.63;;;21.00;80.60;;;;;;5077375;27;40806;-82
2022/08/12 06:05:33;;;;;;;12.27;4.05;;;20.60;80.50;;;;;;5066390;28;20044;-84
2022/08/12 06:11:26;;;;;;;10.35;3.17;;;21.00;80.90;;;;;;5086450;27;20045;-82
2022/08/12 06:14:15;;;;;;;4.53;3.20;;;21.00;81.00;;;;;;5074633;28;20048;-81
2022/08/12 06:17:09;;;;;;;6.55;3.92;;;21.00;81.20;;;;;;5066863;27;20097;-81
2022/08/12 06:20:16;;;;;;;4.75;3.13;;;20.90;81.30;;;;;;5068544;28;20081;-82
2022/08/12 06:29:37;;;;;;;;;;;;;;;;;;;;;
2022/08/12 06:32:46;;;;;;;7.60;3.00;;;21.00;82.70;;;;;;5086855;27;44092;-81
2022/08/12 06:35:26;;;;;;;4.82;2.75;;;21.10;83.00;;;;;;5063123;28;20086;-81
2022/08/12 06:44:08;;;;;;;3.90;3.15;;;21.40;83.60;;;;;;5083833;27;20135;-82
2022/08/12 06:46:53;;;;;;;7.03;2.72;;;21.20;83.40;;;;;;5075247;28;20067;-79
2022/08/12 06:49:50;;;;;;;5.43;2.70;;;21.30;83.60;;;;;;5075863;28;20094;-81
2022/08/12 06:52:37;;;;;;;5.20;2.83;;;21.30;83.60;;;;;;5083653;27;20040;-81
2022/08/12 06:55:26;;;;;;;4.00;2.85;;;21.30;83.30;;;;;;5070741;28;20051;-81
2022/08/12 06:58:05;;;;;;;9.23;3.75;;;21.40;83.40;;;;;;5071572;28;20047;-81
2022/08/12 07:01:00;;;;;;;6.85;3.05;;;21.40;83.40;;;;;;5090655;27;20037;-81
2022/08/12 07:03:55;;;;;;;7.13;3.25;;;21.30;83.10;;;;;;5076748;28;20047;-81
2022/08/12 07:06:38;;;;;;;12.48;3.53;;;21.50;84.00;;;;;;5076846;28;20048;-79
2022/08/12 07:12:16;;;;;;;4.45;3.58;;;21.60;83.00;;;;;;5088789;27;20056;-81
2022/08/12 07:15:09;;;;;;;4.77;2.40;;;21.40;82.80;;;;;;5074455;28;20044;-81
2022/08/12 07:17:59;;;;;;;5.20;3.25;;;21.60;82.80;;;;;;5072632;28;20446;-82
2022/08/12 07:20:52;;;;;;;3.45;2.85;;;21.70;83.30;;;;;;5074336;28;20450;-81
2022/08/12 07:23:30;;;;;;;3.75;2.65;;;21.80;82.70;;;;;;5092876;27;20071;-81
2022/08/12 07:26:21;;;;;;;7.35;3.10;;;21.80;82.60;;;;;;5076421;28;20044;-81
2022/08/12 07:29:11;;;;;;;3.97;3.35;;;21.90;82.40;;;;;;5078973;28;20128;-81
2022/08/12 07:32:14;;;;;;;9.95;3.13;;;21.80;82.20;;;;;;5070274;28;20148;-81
2022/08/12 07:34:53;;;;;;;8.43;3.75;;;21.90;82.10;;;;;;5065413;28;20140;-81
2022/08/12 07:38:01;;;;;;;5.53;3.25;;;21.90;82.00;;;;;;5069022;28;20037;-83
2022/08/12 07:40:53;;;;;;;3.63;2.58;;;22.00;81.90;;;;;;5086284;28;20099;-81
2022/08/12 07:43:53;;;;;;;8.35;2.85;;;22.20;81.90;;;;;;5062564;28;20053;-81
2022/08/12 07:46:59;;;;;;;7.03;3.70;;;22.10;81.80;;;;;;5069035;28;20044;-81
2022/08/12 07:49:39;;;;;;;4.15;3.13;;;22.10;81.80;;;;;;5083190;28;20060;-81
2022/08/12 07:52:24;;;;;;;6.25;2.90;;;22.10;81.80;;;;;;5077755;28;20071;-81
2022/08/12 07:55:04;;;;;;;10.25;3.03;;;22.30;81.70;;;;;;5079956;28;20049;-80
2022/08/12 07:57:51;;;;;;;3.85;2.55;;;22.20;81.50;;;;;;5088568;28;20053;-82
2022/08/12 08:00:33;;;;;;;6.28;2.55;;;22.30;81.50;;;;;;5078307;28;20053;-81
2022/08/12 08:03:08;;;;;;;5.75;2.75;;;22.50;81.70;;;;;;5093782;28;20056;-81
2022/08/12 08:09:07;;;;;;;4.93;2.45;;;22.50;81.20;;;;;;5057739;28;20598;-81
2022/08/12 08:14:55;;;;;;;4.88;2.40;;;22.60;80.60;;;;;;5071562;28;20041;-81
2022/08/12 08:17:46;;;;;;;;;;;;;;;;;;;;;
2022/08/12 08:20:37;;;;;;;;;;;;;;;;;;;;;
2022/08/12 08:26:26;;;;;;;3.83;2.97;;;22.80;79.50;;;;;;5067714;28;20143;-82
2022/08/12 08:28:58;;;;;;;3.28;2.30;;;22.80;79.00;;;;;;5067993;28;20056;-82
2022/08/12 08:31:52;;;;;;;4.85;2.92;;;22.70;78.80;;;;;;5084918;27;20051;-81
2022/08/12 08:34:49;;;;;;;4.22;2.30;;;22.90;78.60;;;;;;5076968;28;20045;-81
2022/08/12 08:37:39;;;;;;;;;;;;;;;;;;;;;
2022/08/12 08:46:33;;;;;;;3.47;2.28;;;23.10;78.00;;;;;;5075641;28;20098;-82
2022/08/12 08:52:34;;;;;;;9.75;2.63;;;23.10;77.50;;;;;;5070033;28;20329;-82
2022/08/12 08:56:00;;;;;;;;;;;;;;;;;;;;;
2022/08/12 08:58:49;;;;;;;6.13;2.85;;;23.20;77.30;;;;;;5040750;28;40768;-82
2022/08/12 09:01:34;;;;;;;5.18;2.70;;;23.30;77.30;;;;;;5067510;28;20068;-82
2022/08/12 09:04:19;;;;;;;5.55;2.85;;;23.20;77.30;;;;;;5075881;28;20049;-82
2022/08/12 09:06:59;;;;;;;6.95;2.92;;;23.50;77.50;;;;;;5085640;27;20132;-83
2022/08/12 09:09:56;;;;;;;5.97;2.75;;;23.20;77.30;;;;;;5067783;28;20168;-80
2022/08/12 09:15:27;;;;;;;4.82;2.25;;;23.40;77.60;;;;;;5070042;28;20594;-80
2022/08/12 09:18:17;;;;;;;4.50;2.63;;;23.50;77.60;;;;;;5075967;28;20055;-81
2022/08/12 09:21:20;;;;;;;5.72;2.60;;;23.60;77.60;;;;;;5058316;28;20053;-79
2022/08/12 09:24:18;;;;;;;5.18;2.63;;;23.60;77.70;;;;;;5074836;28;20078;-80
2022/08/12 09:30:20;;;;;;;4.85;2.47;;;23.80;77.60;;;;;;5065021;28;20048;-79
2022/08/12 09:33:14;;;;;;;4.95;3.03;;;23.90;77.50;;;;;;5067077;28;21753;-80
2022/08/12 09:36:17;;;;;;;5.25;2.70;;;23.90;77.40;;;;;;5065761;28;20045;-79
2022/08/12 09:39:01;;;;;;;4.90;2.50;;;23.70;77.20;;;;;;5066455;28;20148;-80
2022/08/12 09:45:29;;;;;;;5.45;2.28;;;24.00;77.50;;;;;;5065925;28;20040;-80
2022/08/12 09:48:14;;;;;;;4.40;2.58;;;24.00;77.30;;;;;;5055200;28;20041;-80
2022/08/12 09:50:52;;;;;;;5.88;2.55;;;24.00;77.30;;;;;;5048460;28;20057;-80
2022/08/12 09:57:18;;;;;;;4.95;2.30;;;24.10;77.10;;;;;;5064946;28;20045;-80
2022/08/12 10:00:03;;;;;;;7.50;2.38;;;24.20;76.90;;;;;;5069402;28;20056;-80
2022/08/12 10:03:30;;;;;;;6.63;2.55;;;24.20;77.00;;;;;;5049285;28;20040;-80
2022/08/12 10:06:16;;;;;;;5.82;3.05;;;24.30;76.80;;;;;;4981283;28;20050;-79
2022/08/12 10:09:19;;;;;;;3.42;2.50;;;24.40;76.70;;;;;;5063978;28;20063;-79
2022/08/12 10:15:19;;;;;;;4.40;3.05;;;24.40;76.90;;;;;;5066513;28;20049;-80
2022/08/12 10:18:10;;;;;;;10.40;2.95;;;24.50;76.70;;;;;;5074089;28;20049;-78
2022/08/12 10:20:45;;;;;;;3.70;2.80;;;24.50;76.80;;;;;;5067601;28;20045;-80
2022/08/12 10:23:24;;;;;;;3.83;2.38;;;24.60;76.80;;;;;;5066487;28;20131;-79
2022/08/12 10:31:31;;;;;;;7.85;2.40;;;24.80;76.30;;;;;;5087893;27;20044;-80
2022/08/12 10:34:13;;;;;;;;;;;24.80;76.20;;;;;;5069280;28;20133;-79
2022/08/12 10:37:40;;;;;;;3.60;2.55;;;24.70;76.20;;;;;;5084211;27;20760;-79
2022/08/12 10:45:41;;;;;;;4.53;2.83;;;24.90;75.70;;;;;;5092197;27;20048;-79
2022/08/12 10:48:34;;;;;;;4.75;2.90;;;24.90;75.70;;;;;;5087202;28;20144;-78
2022/08/12 10:51:13;;;;;;;4.03;2.15;;;25.00;75.60;;;;;;5093073;28;20049;-80
2022/08/12 10:54:19;;;;;;;6.47;2.47;;;25.10;75.20;;;;;;5068136;28;20049;-78
2022/08/12 10:56:51;;;;;;;5.25;2.22;;;25.10;74.90;;;;;;5042472;28;20050;-78
2022/08/12 10:59:20;;;;;;;6.38;4.00;;;25.10;74.90;;;;;;5036193;28;20060;-79
2022/08/12 11:01:59;;;;;;;3.13;2.38;;;25.20;74.70;;;;;;5053652;28;20564;-79
2022/08/12 11:04:37;;;;;;;5.20;2.45;;;25.20;74.50;;;;;;5044188;28;21337;-81
2022/08/12 11:07:03;;;;;;;6.88;2.47;;;25.40;74.60;;;;;;5049198;28;20296;-80
2022/08/12 11:09:50;;;;;;;3.35;2.22;;;25.20;74.10;;;;;;5040841;28;20574;-76
2022/08/12 11:12:58;;;;;;;3.15;2.38;;;25.20;73.90;;;;;;5048438;28;20375;-82
2022/08/12 11:15:45;;;;;;;7.03;2.30;;;25.20;73.60;;;;;;5046321;28;20632;-83
2022/08/12 11:18:17;;;;;;;6.95;2.53;;;25.20;73.00;;;;;;5063461;27;20049;-80
2022/08/12 11:21:19;;;;;;;4.03;2.28;;;25.40;72.90;;;;;;5075230;28;20040;-79
2022/08/12 11:24:28;;;;;;;4.70;2.42;;;25.40;72.20;;;;;;5086722;27;20542;-78
2022/08/12 11:27:28;;;;;;;5.57;2.42;;;25.50;72.30;;;;;;5077417;28;20064;-78
2022/08/12 11:30:45;;;;;;;4.75;2.80;;;25.50;72.20;;;;;;5076190;28;20504;-78
2022/08/12 11:33:30;;;;;;;3.28;2.25;;;25.60;72.30;;;;;;5068397;28;20066;-81
2022/08/12 11:36:16;;;;;;;4.20;2.30;;;25.60;72.10;;;;;;5082626;28;20044;-81
2022/08/12 11:39:37;;;;;;;;;;;;;;;;;;;;;
2022/08/12 11:42:14;;;;;;;3.45;2.08;;;25.70;72.50;;;;;;5087825;27;44037;-81
2022/08/12 11:45:10;;;;;;;5.45;2.58;;;25.70;72.30;;;;;;5036501;28;20045;-79
2022/08/12 11:48:13;;;;;;;;;;;;;;;;;;;;;
2022/08/12 11:51:14;;;;;;;5.00;2.45;;;25.60;72.20;;;;;;5033652;28;39503;-79
2022/08/12 11:56:55;;;;;;;3.88;2.17;;;25.70;72.30;;;;;;5033432;28;20045;-80
2022/08/12 11:59:35;;;;;;;5.15;2.38;;;25.70;72.40;;;;;;5035334;28;20049;-80
2022/08/12 12:02:24;;;;;;;4.95;2.15;;;25.70;72.20;;;;;;5011986;28;20132;-79
2022/08/12 12:04:59;;;;;;;4.55;2.28;;;25.70;71.90;;;;;;5017339;28;20141;-80
2022/08/12 12:12:10;;;;;;;5.03;2.35;;;25.70;71.70;;;;;;5089906;27;20054;-79
2022/08/12 12:15:01;;;;;;;4.50;2.13;;;25.70;71.60;;;;;;5071305;28;20052;-79
2022/08/12 12:17:58;;;;;;;;;;;;;;;;;;;;;
2022/08/12 12:21:01;;;;;;;2.13;1.55;;;25.90;71.70;;;;;;5090991;27;45157;-79
2022/08/12 12:23:58;;;;;;;2.90;1.92;;;25.80;71.10;;;;;;5062667;28;20124;-80
2022/08/12 12:26:55;;;;;;;5.20;2.33;;;26.00;71.10;;;;;;5062061;28;20683;-80
2022/08/12 12:29:39;;;;;;;2.85;2.00;;;26.10;71.20;;;;;;5042485;28;20851;-80
2022/08/12 12:32:41;;;;;;;5.07;2.83;;;26.10;71.10;;;;;;5048041;28;21101;-80
2022/08/12 12:39:07;;;;;;;;;;;;;;;;;;;;;
2022/08/12 12:48:41;;;;;;;8.10;3.03;;;26.20;71.30;;;;;;4952830;28;20122;-94
2022/08/12 12:51:16;;;;;;;6.18;2.78;;;26.20;71.60;;;;;;4998200;28;20072;-83
2022/08/12 12:54:13;;;;;;;4.32;2.10;;;26.30;71.80;;;;;;5035657;28;20061;-86
2022/08/12 12:57:04;;;;;;;2.83;2.10;;;26.30;71.30;;;;;;5017483;28;20157;-83
2022/08/12 13:05:47;;;;;;;5.05;1.88;;;26.40;71.80;;;;;;5078612;28;20056;-79
2022/08/12 13:08:45;;;;;;;5.57;2.20;;;26.50;71.30;;;;;;5070700;27;20051;-79
2022/08/12 13:11:24;;;;;;;3.28;1.88;;;26.60;71.00;;;;;;5071854;28;20040;-80
2022/08/12 13:14:20;;;;;;;7.07;2.45;;;26.70;71.00;;;;;;5078969;28;20052;-80
2022/08/12 13:17:10;;;;;;;3.45;2.15;;;26.60;70.90;;;;;;5076659;28;20143;-80
2022/08/12 13:20:07;;;;;;;4.70;2.30;;;26.60;70.90;;;;;;5095615;28;20033;-80
2022/08/12 13:22:48;;;;;;;4.95;2.35;;;26.50;70.80;;;;;;5082678;28;20040;-79
2022/08/12 13:25:30;;;;;;;2.37;1.80;;;26.60;70.80;;;;;;5074370;28;20045;-79
2022/08/12 13:28:45;;;;;;;4.15;1.95;;;26.90;70.60;;;;;;5088068;28;20071;-82
2022/08/12 13:31:42;;;;;;;3.30;1.85;;;26.70;70.10;;;;;;5085895;27;20044;-79
2022/08/12 13:34:21;;;;;;;6.57;3.33;;;26.80;70.00;;;;;;5035401;28;20064;-79
2022/08/12 13:36:47;;;;;;;4.80;2.13;;;26.70;69.80;;;;;;5085351;27;20557;-79
2022/08/12 13:39:20;;;;;;;6.28;2.78;;;26.80;69.80;;;;;;5075009;28;20537;-79
2022/08/12 13:41:54;;;;;;;4.28;2.22;;;26.90;69.80;;;;;;5083680;27;20041;-79
2022/08/12 13:44:46;;;;;;;4.63;2.97;;;26.90;69.50;;;;;;5068899;28;20663;-79
2022/08/12 13:47:19;;;;;;;5.43;1.92;;;26.90;69.20;;;;;;5075707;27;20055;-79
2022/08/12 13:50:30;;;;;;;4.57;2.08;;;26.90;69.00;;;;;;5067157;28;20052;-79
2022/08/12 13:53:10;;;;;;;4.25;2.20;;;27.00;68.90;;;;;;5084420;28;20860;-81
2022/08/12 13:56:32;;;;;;;3.55;2.03;;;26.90;69.20;;;;;;5067058;28;20055;-82
2022/08/12 13:59:28;;;;;;;4.10;2.10;;;27.00;69.30;;;;;;5074208;28;20048;-83
2022/08/12 14:02:23;;;;;;;4.40;2.78;;;27.10;68.50;;;;;;5070767;28;20091;-83
2022/08/12 14:12:11;;;;;;;;;;;;;;;;;;;;;
2022/08/12 14:18:03;;;;;;;2.60;2.10;;;27.10;67.70;;;;;;5035400;28;20041;-83
2022/08/12 14:21:18;;;;;;;;;;;;;;;;;;;;;
2022/08/12 14:24:10;;;;;;;;;;;;;;;;;;;;;
2022/08/12 14:27:40;;;;;;;5.57;2.70;;;27.10;67.30;;;;;;5084598;28;42754;-83
2022/08/12 14:34:10;;;;;;;2.25;1.67;;;27.30;66.70;;;;;;5036237;28;20927;-83
2022/08/12 14:40:36;;;;;;;6.00;2.47;;;27.20;65.20;;;;;;5073527;27;20755;-79
2022/08/12 14:43:28;;;;;;;3.28;1.85;;;27.60;65.20;;;;;;5046421;28;20140;-82
2022/08/12 14:49:34;;;;;;;3.42;1.98;;;27.60;64.80;;;;;;5039374;28;20053;-82
2022/08/12 14:52:55;;;;;;;3.72;2.15;;;27.60;64.80;;;;;;5026189;28;20618;-80
2022/08/12 14:55:55;;;;;;;3.85;2.13;;;27.70;64.30;;;;;;5025710;28;20135;-80
2022/08/12 15:02:05;;;;;;;2.75;1.80;;;27.70;64.30;;;;;;5051739;28;20132;-80
2022/08/12 15:05:03;;;;;;;2.53;1.80;;;27.70;64.30;;;;;;5004784;28;20056;-80
2022/08/12 15:07:44;;;;;;;3.13;1.88;;;27.80;64.50;;;;;;5064094;28;20072;-80
2022/08/12 15:10:33;;;;;;;2.40;1.70;;;27.70;64.30;;;;;;5083710;28;20050;-80
2022/08/12 15:13:33;;;;;;;2.47;1.60;;;27.70;64.20;;;;;;5081748;28;20094;-80
2022/08/12 15:17:01;;;;;;;2.10;1.50;;;27.60;64.30;;;;;;5071700;28;20060;-80
2022/08/12 15:19:51;;;;;;;2.92;1.52;;;27.80;64.20;;;;;;4990240;28;20156;-80
2022/08/12 15:22:40;;;;;;;5.70;2.13;;;27.90;64.40;;;;;;5067134;28;20044;-80
2022/08/12 15:25:16;;;;;;;6.28;2.05;;;27.70;64.10;;;;;;5085904;28;20059;-80
2022/08/12 15:28:01;;;;;;;;;;;;;;;;;;;;;
2022/08/12 15:30:56;;;;;;;2.80;1.83;;;27.70;64.10;;;;;;5083143;28;41495;-80
2022/08/12 15:34:43;;;;;;;2.60;1.50;;;27.80;63.60;;;;;;5070659;28;20114;-80
2022/08/12 15:37:13;;;;;;;2.38;1.50;;;27.80;63.10;;;;;;5084700;27;20053;-80
2022/08/12 15:40:01;;;;;;;3.97;1.77;;;27.80;62.60;;;;;;5087960;28;20043;-80
2022/08/12 15:42:55;;;;;;;;;;;;;;;;;;;;;
2022/08/12 15:45:31;;;;;;;4.38;2.42;;;28.00;62.20;;;;;;5086545;27;38955;-80
2022/08/12 15:51:34;;;;;;;2.67;1.83;;;27.90;61.50;;;;;;5075189;28;20064;-80
2022/08/12 15:54:29;;;;;;;3.72;1.77;;;27.70;61.10;;;;;;5067408;28;20096;-80
2022/08/12 15:57:41;;;;;;;2.92;1.92;;;28.10;60.80;;;;;;5069390;28;20040;-81
2022/08/12 16:00:32;;;;;;;4.50;1.80;;;28.10;61.10;;;;;;5084505;27;20519;-81
2022/08/12 16:03:27;;;;;;;3.33;1.45;;;28.10;61.00;;;;;;5085912;27;20048;-80
2022/08/12 16:06:18;;;;;;;6.88;2.25;;;28.00;61.10;;;;;;5067696;28;20056;-79
2022/08/12 16:09:15;;;;;;;2.78;1.58;;;28.00;61.10;;;;;;5045990;28;20048;-80
2022/08/12 16:12:29;;;;;;;3.58;1.75;;;28.00;61.00;;;;;;5066819;28;20041;-80
2022/08/12 16:15:26;;;;;;;2.55;1.90;;;28.00;61.20;;;;;;5050373;28;20132;-81
2022/08/12 16:18:44;;;;;;;4.93;2.05;;;28.20;61.30;;;;;;5033024;28;20062;-80
2022/08/12 16:21:57;;;;;;;4.78;2.10;;;28.20;61.40;;;;;;5016596;28;20582;-81
2022/08/12 16:24:45;;;;;;;2.40;1.42;;;28.20;61.80;;;;;;5016370;28;20045;-82
2022/08/12 16:28:04;;;;;;;2.85;2.33;;;28.10;61.70;;;;;;5017564;28;20119;-83
2022/08/12 16:34:31;;;;;;;;;;;;;;;;;;;;;
2022/08/12 16:37:17;;;;;;;3.83;1.90;;;28.30;61.90;;;;;;4958581;28;40483;-82
2022/08/12 16:40:06;;;;;;;3.45;1.83;;;28.30;61.50;;;;;;5036684;28;20098;-82
2022/08/12 16:43:01;;;;;;;3.50;1.92;;;28.30;61.50;;;;;;5036016;28;20657;-81
2022/08/12 16:45:58;;;;;;;3.78;1.98;;;28.40;61.40;;;;;;5038053;28;20041;-82
2022/08/12 16:48:42;;;;;;;5.38;1.83;;;28.40;61.10;;;;;;5040471;28;20044;-81
2022/08/12 16:54:31;;;;;;;;;;;;;;;;;;;;;
2022/08/12 16:57:25;;;;;;;3.03;1.60;;;28.50;61.30;;;;;;5085996;28;39451;-82
2022/08/12 17:00:53;;;;;;;5.60;2.08;;;28.40;61.30;;;;;;5086559;27;20032;-82
2022/08/12 17:03:44;;;;;;;5.85;1.70;;;28.40;61.50;;;;;;5073959;28;20076;-82
2022/08/12 17:09:58;;;;;;;;;;;;;;;;;;;;;
2022/08/12 17:12:51;;;;;;;6.05;1.80;;;28.20;61.90;;;;;;5031521;28;38537;-81
2022/08/12 17:15:48;;;;;;;4.78;2.40;;;28.30;62.10;;;;;;5052707;28;20099;-82
2022/08/12 17:19:24;;;;;;;4.53;2.00;;;28.20;62.00;;;;;;5030247;28;20090;-82
2022/08/12 17:22:36;;;;;;;2.63;2.00;;;28.30;62.00;;;;;;4955522;28;20545;-83
2022/08/12 17:25:28;;;;;;;5.13;1.90;;;28.40;62.20;;;;;;5030532;28;20042;-81
2022/08/12 17:28:00;;;;;;;;;;;28.20;62.10;;;;;;4993610;28;20430;-80
2022/08/12 17:31:01;;;;;;;2.70;1.85;;;28.20;62.20;;;;;;4984621;28;19918;-81
2022/08/12 17:36:58;;;;;;;2.90;2.03;;;28.20;62.50;;;;;;4999656;28;20050;-83
2022/08/12 17:39:36;;;;;;;;;;;28.20;62.50;;;;;;4964475;28;20050;-79
2022/08/12 17:42:31;;;;;;;6.28;1.83;;;28.10;62.30;;;;;;4948003;28;20009;-81
2022/08/12 17:45:09;;;;;;;5.47;3.10;;;28.30;62.50;;;;;;4934040;28;20569;-81
2022/08/12 17:48:08;;;;;;;6.53;2.13;;;28.20;62.60;;;;;;4953824;28;20043;-81
2022/08/12 17:50:56;;;;;;;4.55;2.15;;;28.20;62.20;;;;;;5010571;28;20057;-76
2022/08/12 17:53:26;;;;;;;8.18;2.40;;;28.00;62.60;;;;;;5002325;28;20543;-80
2022/08/12 17:56:02;;;;;;;4.88;2.00;;;28.00;62.80;;;;;;5004059;28;20163;-80
2022/08/12 17:58:32;;;;;;;4.45;2.30;;;28.00;62.80;;;;;;5011831;28;20057;-79
2022/08/12 18:01:05;;;;;;;5.57;2.72;;;28.00;63.10;;;;;;5034002;28;20057;-80
2022/08/12 18:04:07;;;;;;;;;;;;;;;;;;;;;
2022/08/12 18:07:01;;;;;;;3.50;1.90;;;28.00;63.30;;;;;;5056880;28;43431;-79
2022/08/12 18:13:04;;;;;;;5.75;2.00;;;28.00;63.20;;;;;;5058755;28;20057;-79
2022/08/12 18:16:22;;;;;;;6.30;2.33;;;28.00;63.10;;;;;;5061267;28;20057;-79
2022/08/12 18:19:25;;;;;;;4.85;2.42;;;27.90;63.00;;;;;;5057796;28;20057;-79
2022/08/12 18:22:31;;;;;;;6.78;2.20;;;27.80;63.20;;;;;;5059229;28;20044;-79
2022/08/12 18:25:03;;;;;;;4.63;2.53;;;27.80;63.30;;;;;;5052651;28;20670;-79
2022/08/12 18:28:02;;;;;;;5.53;2.42;;;27.80;63.30;;;;;;5064889;28;20216;-79
2022/08/12 18:31:05;;;;;;;5.93;2.03;;;27.80;63.40;;;;;;5073039;28;20082;-82
2022/08/12 18:33:51;;;;;;;2.40;1.77;;;27.80;63.20;;;;;;5085436;27;20048;-81
2022/08/12 18:36:52;;;;;;;2.97;1.77;;;27.80;63.40;;;;;;5031099;28;20463;-89
2022/08/12 18:43:11;;;;;;;;;;;;;;;;;;;;;
2022/08/12 18:46:14;;;;;;;6.35;2.10;;;27.90;63.90;;;;;;5030640;28;39044;-84
2022/08/12 18:48:55;;;;;;;4.68;1.77;;;27.50;63.60;;;;;;5011315;28;20084;-78
2022/08/12 18:51:25;;;;;;;4.35;2.00;;;27.50;63.80;;;;;;5024265;28;20543;-83
2022/08/12 18:53:57;;;;;;;4.00;1.83;;;27.50;64.10;;;;;;5014304;28;20045;-79
2022/08/12 18:56:37;;;;;;;4.22;2.45;;;27.50;64.20;;;;;;5007113;28;20061;-80
2022/08/12 18:59:25;;;;;;;6.25;2.42;;;27.50;64.30;;;;;;5014013;28;20598;-79
2022/08/12 19:02:32;;;;;;;4.32;2.42;;;27.40;64.20;;;;;;5055350;28;20531;-81
2022/08/12 19:05:36;;;;;;;3.35;1.90;;;27.50;65.00;;;;;;5059306;28;20566;-80
2022/08/12 19:14:49;;;;;;;;;;;;;;;;;;;;;
2022/08/12 19:20:41;;;;;;;;;;;;;;;;;;;;;
2022/08/12 19:23:40;;;;;;;7.50;2.80;;;27.00;65.80;;;;;;5065374;28;44140;-81
2022/08/12 19:26:37;;;;;;;;;;;;;;;;;;;;;
2022/08/12 19:29:42;;;;;;;;;;;;;;;;;;;;;
2022/08/12 19:36:06;;;;;;;5.65;2.40;;;26.90;65.80;;;;;;5088621;27;20059;-81
2022/08/12 19:38:47;;;;;;;5.80;2.40;;;26.90;65.90;;;;;;5071001;28;20525;-80
2022/08/12 19:41:38;;;;;;;4.18;2.35;;;26.90;65.80;;;;;;5085840;27;20254;-80
2022/08/12 19:44:15;;;;;;;;;;;26.80;65.80;;;;;;5072019;28;21271;-80
2022/08/12 19:50:17;;;;;;;6.25;2.25;;;26.60;65.70;;;;;;5090707;28;20961;-80
2022/08/12 19:53:09;;;;;;;3.63;2.28;;;26.60;65.70;;;;;;5092382;27;20079;-80
2022/08/12 19:56:01;;;;;;;5.70;2.78;;;26.60;65.90;;;;;;5076029;28;20139;-81
2022/08/12 19:58:53;;;;;;;4.85;2.13;;;26.60;66.00;;;;;;5081454;27;20091;-81
2022/08/12 20:01:49;;;;;;;7.95;2.55;;;26.70;66.00;;;;;;5078580;28;20048;-80
2022/08/12 20:04:31;;;;;;;3.95;2.00;;;26.50;65.90;;;;;;5078030;28;20514;-80
2022/08/12 20:07:50;;;;;;;5.38;2.60;;;26.60;66.00;;;;;;5068878;28;20056;-80
2022/08/12 20:10:49;;;;;;;5.50;2.33;;;26.50;66.10;;;;;;5084858;28;20052;-80
2022/08/12 20:13:26;;;;;;;5.38;2.33;;;26.40;66.00;;;;;;5069142;28;20047;-80
2022/08/12 20:16:05;;;;;;;4.28;2.25;;;26.40;66.20;;;;;;5076680;28;20047;-81
2022/08/12 20:19:19;;;;;;;7.05;2.17;;;26.30;66.30;;;;;;5076581;28;20760;-80
2022/08/12 20:21:53;;;;;;;7.65;2.85;;;26.30;66.30;;;;;;4990464;28;20856;-80
2022/08/12 20:24:53;;;;;;;7.07;2.78;;;26.20;66.30;;;;;;4988926;28;20105;-80
2022/08/12 20:27:46;;;;;;;2.78;1.73;;;26.30;66.40;;;;;;5057063;28;20036;-80
2022/08/12 20:30:38;;;;;;;5.60;2.88;;;26.20;66.40;;;;;;5066957;28;20072;-80
2022/08/12 20:33:24;;;;;;;4.43;2.83;;;26.20;66.50;;;;;;5061908;28;20044;-80
2022/08/12 20:36:11;;;;;;;4.60;2.50;;;26.20;66.60;;;;;;5069713;28;20391;-80
2022/08/12 20:42:00;;;;;;;3.85;2.28;;;26.00;66.90;;;;;;5072602;28;20131;-80
2022/08/12 20:44:54;;;;;;;2.83;2.00;;;26.10;67.10;;;;;;5087385;27;20108;-78
2022/08/12 20:54:11;;;;;;;3.58;2.40;;;26.00;67.60;;;;;;5065341;28;20067;-80
2022/08/12 20:57:09;;;;;;;;;;;;;;;;;;;;;
2022/08/12 20:59:47;;;;;;;6.15;2.08;;;25.90;67.60;;;;;;5063815;28;43242;-80
2022/08/12 21:02:31;;;;;;;40.85;30.33;;;25.90;67.80;;;;;;5079793;27;20487;-78
2022/08/12 21:08:05;;;;;;;10.57;7.88;;;25.90;68.30;;;;;;5067056;28;20053;-79
2022/08/12 21:10:34;;;;;;;5.70;3.20;;;25.80;68.70;;;;;;5062229;28;20040;-79
2022/08/12 21:13:21;;;;;;;4.65;2.58;;;25.80;68.90;;;;;;5076338;27;20040;-79
2022/08/12 21:16:08;;;;;;;6.38;2.72;;;25.60;68.90;;;;;;5069736;28;20611;-79
2022/08/12 21:18:39;;;;;;;5.00;2.63;;;25.70;69.40;;;;;;5071336;28;20107;-79
2022/08/12 21:21:16;;;;;;;3.60;2.55;;;25.70;69.50;;;;;;5067203;28;20608;-79
2022/08/12 21:23:48;;;;;;;6.82;3.78;;;25.50;69.60;;;;;;5071044;28;20095;-79
2022/08/12 21:26:26;;;;;;;;;;;25.70;69.80;;;;;;5081093;28;20052;-79
2022/08/12 21:29:07;;;;;;;5.03;2.80;;;25.70;69.60;;;;;;5078579;28;19925;-79
2022/08/12 21:31:47;;;;;;;13.63;3.83;;;25.50;69.60;;;;;;5070748;28;20048;-79
2022/08/12 21:34:30;;;;;;;4.60;2.80;;;25.40;69.80;;;;;;5069982;28;20126;-79
2022/08/12 21:37:21;;;;;;;8.15;2.78;;;25.70;70.40;;;;;;5066280;28;20045;-80
2022/08/12 21:39:58;;;;;;;5.38;2.25;;;25.70;70.60;;;;;;5065187;28;20045;-80